sensor_id;sensor_type;location;lat;lon;timestamp;P1;durP1;ratioP1;P2;durP2;ratioP2
62574;SDS011;53112;45.602;11.904;2022-09-13T00:02:05;8.38;;;6.50;;
62574;SDS011;53112;45.602;11.904;2022-09-13T00:04:31;7.10;;;6.00;;
62574;SDS011;53112;45.602;11.904;2022-09-13T00:06:57;7.60;;;6.13;;
62574;SDS011;53112;45.602;11.904;2022-09-13T00:09:23;7.18;;;5.82;;
62574;SDS011;53112;45.602;11.904;2022-09-13T00:11:49;8.15;;;5.18;;
62574;SDS011;53112;45.602;11.904;2022-09-13T00:14:16;7.85;;;5.40;;
62574;SDS011;53112;45.602;11.904;2022-09-13T00:16:42;6.22;;;4.97;;
62574;SDS011;53112;45.602;11.904;2022-09-13T00:19:08;6.22;;;4.57;;
62574;SDS011;53112;45.602;11.904;2022-09-13T00:21:34;7.63;;;5.00;;
62574;SDS011;53112;45.602;11.904;2022-09-13T00:24:00;9.30;;;6.35;;
62574;SDS011;53112;45.602;11.904;2022-09-13T00:26:27;10.77;;;6.95;;
62574;SDS011;53112;45.602;11.904;2022-09-13T00:28:54;9.02;;;7.50;;
62574;SDS011;53112;45.602;11.904;2022-09-13T00:31:22;9.35;;;6.32;;
62574;SDS011;53112;45.602;11.904;2022-09-13T00:33:50;8.93;;;5.65;;
62574;SDS011;53112;45.602;11.904;2022-09-13T00:36:16;9.40;;;6.40;;
62574;SDS011;53112;45.602;11.904;2022-09-13T00:38:42;7.72;;;5.82;;
62574;SDS011;53112;45.602;11.904;2022-09-13T00:41:10;5.80;;;4.75;;
62574;SDS011;53112;45.602;11.904;2022-09-13T00:46:36;9.48;;;7.30;;
62574;SDS011;53112;45.602;11.904;2022-09-13T00:49:11;9.07;;;7.32;;
62574;SDS011;53112;45.602;11.904;2022-09-13T00:51:41;9.10;;;6.88;;
62574;SDS011;53112;45.602;11.904;2022-09-13T00:54:12;8.10;;;6.22;;
62574;SDS011;53112;45.602;11.904;2022-09-13T00:56:42;7.25;;;5.68;;
62574;SDS011;53112;45.602;11.904;2022-09-13T00:59:19;6.13;;;5.00;;
62574;SDS011;53112;45.602;11.904;2022-09-13T01:01:56;7.57;;;5.30;;
62574;SDS011;53112;45.602;11.904;2022-09-13T01:04:25;7.60;;;6.07;;
62574;SDS011;53112;45.602;11.904;2022-09-13T01:06:53;6.80;;;5.07;;
62574;SDS011;53112;45.602;11.904;2022-09-13T01:09:22;6.95;;;5.47;;
62574;SDS011;53112;45.602;11.904;2022-09-13T01:11:50;5.82;;;4.60;;
62574;SDS011;53112;45.602;11.904;2022-09-13T01:14:25;7.43;;;5.88;;
62574;SDS011;53112;45.602;11.904;2022-09-13T01:16:52;8.45;;;5.43;;
62574;SDS011;53112;45.602;11.904;2022-09-13T01:19:18;8.13;;;6.57;;
62574;SDS011;53112;45.602;11.904;2022-09-13T01:43:59;8.18;;;6.65;;
62574;SDS011;53112;45.602;11.904;2022-09-13T01:46:53;9.07;;;7.53;;
62574;SDS011;53112;45.602;11.904;2022-09-13T02:00:36;8.68;;;6.40;;
62574;SDS011;53112;45.602;11.904;2022-09-13T02:03:16;7.20;;;5.95;;
62574;SDS011;53112;45.602;11.904;2022-09-13T02:05:58;6.20;;;4.60;;
62574;SDS011;53112;45.602;11.904;2022-09-13T02:08:33;5.90;;;4.80;;
62574;SDS011;53112;45.602;11.904;2022-09-13T02:11:10;5.68;;;4.53;;
62574;SDS011;53112;45.602;11.904;2022-09-13T02:13:40;7.30;;;4.97;;
62574;SDS011;53112;45.602;11.904;2022-09-13T02:16:14;5.50;;;4.53;;
62574;SDS011;53112;45.602;11.904;2022-09-13T02:18:51;8.95;;;5.15;;
62574;SDS011;53112;45.602;11.904;2022-09-13T02:21:25;6.00;;;5.00;;
62574;SDS011;53112;45.602;11.904;2022-09-13T02:24:05;6.28;;;5.05;;
62574;SDS011;53112;45.602;11.904;2022-09-13T02:26:34;6.13;;;5.25;;
62574;SDS011;53112;45.602;11.904;2022-09-13T02:29:04;7.55;;;5.78;;
62574;SDS011;53112;45.602;11.904;2022-09-13T02:31:38;8.35;;;5.97;;
62574;SDS011;53112;45.602;11.904;2022-09-13T02:34:12;5.78;;;4.47;;
62574;SDS011;53112;45.602;11.904;2022-09-13T02:36:44;5.40;;;4.35;;
62574;SDS011;53112;45.602;11.904;2022-09-13T02:39:14;8.05;;;6.15;;
62574;SDS011;53112;45.602;11.904;2022-09-13T02:41:52;6.03;;;4.80;;
62574;SDS011;53112;45.602;11.904;2022-09-13T02:52:36;7.03;;;6.10;;
62574;SDS011;53112;45.602;11.904;2022-09-13T02:57:33;7.82;;;5.10;;
62574;SDS011;53112;45.602;11.904;2022-09-13T03:00:03;7.00;;;6.13;;
62574;SDS011;53112;45.602;11.904;2022-09-13T03:02:32;6.50;;;5.28;;
62574;SDS011;53112;45.602;11.904;2022-09-13T03:04:59;8.65;;;6.57;;
62574;SDS011;53112;45.602;11.904;2022-09-13T03:07:26;6.82;;;5.88;;
62574;SDS011;53112;45.602;11.904;2022-09-13T03:09:57;9.52;;;6.22;;
62574;SDS011;53112;45.602;11.904;2022-09-13T03:12:37;8.88;;;6.53;;
62574;SDS011;53112;45.602;11.904;2022-09-13T03:21:18;7.78;;;5.10;;
62574;SDS011;53112;45.602;11.904;2022-09-13T03:29:39;8.23;;;6.70;;
62574;SDS011;53112;45.602;11.904;2022-09-13T03:39:56;5.35;;;4.18;;
62574;SDS011;53112;45.602;11.904;2022-09-13T03:42:28;6.82;;;5.00;;
62574;SDS011;53112;45.602;11.904;2022-09-13T03:45:08;6.18;;;5.10;;
62574;SDS011;53112;45.602;11.904;2022-09-13T03:47:37;7.80;;;5.00;;
62574;SDS011;53112;45.602;11.904;2022-09-13T03:50:06;6.28;;;4.85;;
62574;SDS011;53112;45.602;11.904;2022-09-13T03:52:34;6.60;;;4.80;;
62574;SDS011;53112;45.602;11.904;2022-09-13T03:55:01;5.85;;;4.57;;
62574;SDS011;53112;45.602;11.904;2022-09-13T03:57:27;7.43;;;5.20;;
62574;SDS011;53112;45.602;11.904;2022-09-13T03:59:54;6.32;;;5.32;;
62574;SDS011;53112;45.602;11.904;2022-09-13T04:02:22;9.73;;;5.50;;
62574;SDS011;53112;45.602;11.904;2022-09-13T04:04:49;5.97;;;4.72;;
62574;SDS011;53112;45.602;11.904;2022-09-13T04:07:17;6.55;;;4.70;;
62574;SDS011;53112;45.602;11.904;2022-09-13T04:09:44;5.90;;;4.72;;
62574;SDS011;53112;45.602;11.904;2022-09-13T04:12:11;7.78;;;5.47;;
62574;SDS011;53112;45.602;11.904;2022-09-13T04:14:39;8.13;;;5.20;;
62574;SDS011;53112;45.602;11.904;2022-09-13T04:17:08;7.32;;;5.32;;
62574;SDS011;53112;45.602;11.904;2022-09-13T04:19:37;6.50;;;5.10;;
62574;SDS011;53112;45.602;11.904;2022-09-13T04:22:03;7.18;;;5.63;;
62574;SDS011;53112;45.602;11.904;2022-09-13T04:24:29;7.10;;;5.22;;
62574;SDS011;53112;45.602;11.904;2022-09-13T04:26:56;7.25;;;5.05;;
62574;SDS011;53112;45.602;11.904;2022-09-13T04:29:23;7.88;;;4.63;;
62574;SDS011;53112;45.602;11.904;2022-09-13T04:31:51;7.55;;;5.28;;
62574;SDS011;53112;45.602;11.904;2022-09-13T04:34:18;6.97;;;5.30;;
62574;SDS011;53112;45.602;11.904;2022-09-13T04:36:47;9.88;;;5.70;;
62574;SDS011;53112;45.602;11.904;2022-09-13T04:39:14;7.38;;;4.90;;
62574;SDS011;53112;45.602;11.904;2022-09-13T04:41:40;6.50;;;4.88;;
62574;SDS011;53112;45.602;11.904;2022-09-13T04:44:08;9.77;;;4.70;;
62574;SDS011;53112;45.602;11.904;2022-09-13T04:46:34;5.88;;;4.38;;
62574;SDS011;53112;45.602;11.904;2022-09-13T04:49:00;6.97;;;4.80;;
62574;SDS011;53112;45.602;11.904;2022-09-13T04:51:27;5.07;;;4.10;;
62574;SDS011;53112;45.602;11.904;2022-09-13T04:53:53;9.00;;;6.18;;
62574;SDS011;53112;45.602;11.904;2022-09-13T04:56:21;6.85;;;4.90;;
62574;SDS011;53112;45.602;11.904;2022-09-13T04:58:52;5.78;;;4.53;;
62574;SDS011;53112;45.602;11.904;2022-09-13T05:01:19;8.25;;;5.10;;
62574;SDS011;53112;45.602;11.904;2022-09-13T05:03:46;7.40;;;5.30;;
62574;SDS011;53112;45.602;11.904;2022-09-13T05:06:13;8.10;;;4.63;;
62574;SDS011;53112;45.602;11.904;2022-09-13T05:08:44;7.40;;;5.10;;
62574;SDS011;53112;45.602;11.904;2022-09-13T05:11:14;6.75;;;4.93;;
62574;SDS011;53112;45.602;11.904;2022-09-13T05:13:40;6.20;;;4.68;;
62574;SDS011;53112;45.602;11.904;2022-09-13T05:16:06;6.90;;;5.03;;
62574;SDS011;53112;45.602;11.904;2022-09-13T05:18:34;7.78;;;6.30;;
62574;SDS011;53112;45.602;11.904;2022-09-13T05:21:01;7.53;;;5.53;;
62574;SDS011;53112;45.602;11.904;2022-09-13T05:23:29;8.00;;;5.78;;
62574;SDS011;53112;45.602;11.904;2022-09-13T05:26:00;6.50;;;4.82;;
62574;SDS011;53112;45.602;11.904;2022-09-13T05:28:29;7.68;;;4.68;;
62574;SDS011;53112;45.602;11.904;2022-09-13T05:31:01;5.65;;;4.43;;
62574;SDS011;53112;45.602;11.904;2022-09-13T05:33:37;7.72;;;5.22;;
62574;SDS011;53112;45.602;11.904;2022-09-13T05:36:03;5.45;;;4.60;;
62574;SDS011;53112;45.602;11.904;2022-09-13T05:38:30;8.20;;;5.30;;
62574;SDS011;53112;45.602;11.904;2022-09-13T05:40:58;6.78;;;4.72;;
62574;SDS011;53112;45.602;11.904;2022-09-13T05:43:26;7.07;;;4.35;;
62574;SDS011;53112;45.602;11.904;2022-09-13T05:46:04;5.97;;;4.47;;
62574;SDS011;53112;45.602;11.904;2022-09-13T05:48:41;7.68;;;4.47;;
62574;SDS011;53112;45.602;11.904;2022-09-13T05:51:08;6.90;;;4.63;;
62574;SDS011;53112;45.602;11.904;2022-09-13T05:53:36;8.18;;;4.90;;
62574;SDS011;53112;45.602;11.904;2022-09-13T05:56:04;10.40;;;5.47;;
62574;SDS011;53112;45.602;11.904;2022-09-13T05:58:32;7.65;;;4.57;;
62574;SDS011;53112;45.602;11.904;2022-09-13T06:00:59;6.47;;;4.53;;
62574;SDS011;53112;45.602;11.904;2022-09-13T06:03:26;7.90;;;4.82;;
62574;SDS011;53112;45.602;11.904;2022-09-13T06:05:55;5.97;;;4.70;;
62574;SDS011;53112;45.602;11.904;2022-09-13T06:08:25;9.00;;;5.57;;
62574;SDS011;53112;45.602;11.904;2022-09-13T06:10:54;9.93;;;5.97;;
62574;SDS011;53112;45.602;11.904;2022-09-13T06:13:31;7.95;;;5.68;;
62574;SDS011;53112;45.602;11.904;2022-09-13T06:15:58;11.25;;;8.07;;
62574;SDS011;53112;45.602;11.904;2022-09-13T06:18:25;10.43;;;7.50;;
62574;SDS011;53112;45.602;11.904;2022-09-13T06:20:59;15.93;;;10.85;;
62574;SDS011;53112;45.602;11.904;2022-09-13T06:23:27;11.23;;;8.75;;
62574;SDS011;53112;45.602;11.904;2022-09-13T06:28:27;8.00;;;5.40;;
62574;SDS011;53112;45.602;11.904;2022-09-13T06:31:00;7.88;;;5.05;;
62574;SDS011;53112;45.602;11.904;2022-09-13T06:33:30;6.82;;;4.47;;
62574;SDS011;53112;45.602;11.904;2022-09-13T06:36:00;8.18;;;4.63;;
62574;SDS011;53112;45.602;11.904;2022-09-13T06:38:27;6.20;;;3.95;;
62574;SDS011;53112;45.602;11.904;2022-09-13T06:41:00;6.03;;;3.60;;
62574;SDS011;53112;45.602;11.904;2022-09-13T06:43:31;9.32;;;5.18;;
62574;SDS011;53112;45.602;11.904;2022-09-13T06:45:58;7.20;;;4.38;;
62574;SDS011;53112;45.602;11.904;2022-09-13T06:48:25;6.47;;;4.78;;
62574;SDS011;53112;45.602;11.904;2022-09-13T06:50:52;5.85;;;4.57;;
62574;SDS011;53112;45.602;11.904;2022-09-13T06:53:23;6.73;;;4.33;;
62574;SDS011;53112;45.602;11.904;2022-09-13T06:55:49;8.23;;;4.93;;
62574;SDS011;53112;45.602;11.904;2022-09-13T06:58:44;7.53;;;5.40;;
62574;SDS011;53112;45.602;11.904;2022-09-13T07:03:42;9.30;;;5.07;;
62574;SDS011;53112;45.602;11.904;2022-09-13T07:06:14;6.57;;;4.43;;
62574;SDS011;53112;45.602;11.904;2022-09-13T07:08:41;6.27;;;4.53;;
62574;SDS011;53112;45.602;11.904;2022-09-13T07:11:09;6.53;;;4.40;;
62574;SDS011;53112;45.602;11.904;2022-09-13T07:13:37;6.63;;;4.30;;
62574;SDS011;53112;45.602;11.904;2022-09-13T07:16:04;8.00;;;4.47;;
62574;SDS011;53112;45.602;11.904;2022-09-13T07:18:32;5.35;;;3.83;;
62574;SDS011;53112;45.602;11.904;2022-09-13T07:20:59;8.32;;;4.18;;
62574;SDS011;53112;45.602;11.904;2022-09-13T07:23:31;6.97;;;4.53;;
62574;SDS011;53112;45.602;11.904;2022-09-13T07:25:58;8.55;;;4.30;;
62574;SDS011;53112;45.602;11.904;2022-09-13T07:31:05;5.55;;;3.60;;
62574;SDS011;53112;45.602;11.904;2022-09-13T07:33:42;7.30;;;3.47;;
62574;SDS011;53112;45.602;11.904;2022-09-13T07:36:09;6.57;;;3.58;;
62574;SDS011;53112;45.602;11.904;2022-09-13T07:38:37;5.45;;;3.67;;
62574;SDS011;53112;45.602;11.904;2022-09-13T07:41:05;5.93;;;3.80;;
62574;SDS011;53112;45.602;11.904;2022-09-13T07:43:34;7.03;;;3.78;;
62574;SDS011;53112;45.602;11.904;2022-09-13T07:46:02;6.25;;;4.05;;
62574;SDS011;53112;45.602;11.904;2022-09-13T07:48:31;5.43;;;3.70;;
62574;SDS011;53112;45.602;11.904;2022-09-13T07:51:04;5.60;;;3.70;;
62574;SDS011;53112;45.602;11.904;2022-09-13T07:53:32;6.50;;;3.63;;
62574;SDS011;53112;45.602;11.904;2022-09-13T07:56:00;5.55;;;3.53;;
62574;SDS011;53112;45.602;11.904;2022-09-13T07:58:28;5.40;;;3.70;;
62574;SDS011;53112;45.602;11.904;2022-09-13T08:00:56;4.40;;;3.35;;
62574;SDS011;53112;45.602;11.904;2022-09-13T08:03:28;4.35;;;3.20;;
62574;SDS011;53112;45.602;11.904;2022-09-13T08:05:55;4.50;;;3.05;;
62574;SDS011;53112;45.602;11.904;2022-09-13T08:08:21;6.68;;;3.30;;
62574;SDS011;53112;45.602;11.904;2022-09-13T08:10:46;4.43;;;3.10;;
62574;SDS011;53112;45.602;11.904;2022-09-13T08:13:14;4.78;;;2.78;;
62574;SDS011;53112;45.602;11.904;2022-09-13T08:15:41;3.92;;;2.72;;
62574;SDS011;53112;45.602;11.904;2022-09-13T08:18:11;6.45;;;3.10;;
62574;SDS011;53112;45.602;11.904;2022-09-13T08:20:37;4.63;;;2.92;;
62574;SDS011;53112;45.602;11.904;2022-09-13T08:23:04;4.68;;;2.70;;
62574;SDS011;53112;45.602;11.904;2022-09-13T08:25:31;8.50;;;3.53;;
62574;SDS011;53112;45.602;11.904;2022-09-13T08:28:06;6.32;;;2.67;;
62574;SDS011;53112;45.602;11.904;2022-09-13T08:30:34;7.07;;;3.03;;
62574;SDS011;53112;45.602;11.904;2022-09-13T08:33:02;3.95;;;2.80;;
62574;SDS011;53112;45.602;11.904;2022-09-13T08:35:29;4.38;;;2.70;;
62574;SDS011;53112;45.602;11.904;2022-09-13T08:37:57;2.60;;;2.30;;
62574;SDS011;53112;45.602;11.904;2022-09-13T08:40:24;5.43;;;3.05;;
62574;SDS011;53112;45.602;11.904;2022-09-13T08:43:01;3.42;;;2.50;;
62574;SDS011;53112;45.602;11.904;2022-09-13T08:45:29;3.92;;;2.50;;
62574;SDS011;53112;45.602;11.904;2022-09-13T08:47:56;3.38;;;2.20;;
62574;SDS011;53112;45.602;11.904;2022-09-13T08:50:32;4.22;;;2.40;;
62574;SDS011;53112;45.602;11.904;2022-09-13T08:55:46;3.42;;;2.60;;
62574;SDS011;53112;45.602;11.904;2022-09-13T09:03:44;4.95;;;2.63;;
62574;SDS011;53112;45.602;11.904;2022-09-13T09:06:28;4.05;;;2.47;;
62574;SDS011;53112;45.602;11.904;2022-09-13T09:08:57;4.57;;;2.30;;
62574;SDS011;53112;45.602;11.904;2022-09-13T09:16:59;3.60;;;2.03;;
62574;SDS011;53112;45.602;11.904;2022-09-13T09:19:38;2.75;;;1.50;;
62574;SDS011;53112;45.602;11.904;2022-09-13T09:22:13;1.80;;;1.70;;
62574;SDS011;53112;45.602;11.904;2022-09-13T09:24:44;2.67;;;1.70;;
62574;SDS011;53112;45.602;11.904;2022-09-13T09:27:14;3.22;;;1.73;;
62574;SDS011;53112;45.602;11.904;2022-09-13T09:29:41;2.25;;;1.77;;
62574;SDS011;53112;45.602;11.904;2022-09-13T09:37:49;3.55;;;1.60;;
62574;SDS011;53112;45.602;11.904;2022-09-13T09:40:27;1.65;;;1.30;;
62574;SDS011;53112;45.602;11.904;2022-09-13T09:42:56;2.50;;;1.20;;
62574;SDS011;53112;45.602;11.904;2022-09-13T09:45:29;2.58;;;1.80;;
62574;SDS011;53112;45.602;11.904;2022-09-13T09:47:59;1.40;;;1.30;;
62574;SDS011;53112;45.602;11.904;2022-09-13T09:50:33;2.30;;;1.50;;
62574;SDS011;53112;45.602;11.904;2022-09-13T09:53:06;3.03;;;1.60;;
62574;SDS011;53112;45.602;11.904;2022-09-13T09:55:40;1.85;;;1.50;;
62574;SDS011;53112;45.602;11.904;2022-09-13T09:58:13;1.50;;;1.40;;
62574;SDS011;53112;45.602;11.904;2022-09-13T10:00:50;3.53;;;1.70;;
62574;SDS011;53112;45.602;11.904;2022-09-13T10:03:20;2.25;;;1.63;;
62574;SDS011;53112;45.602;11.904;2022-09-13T10:06:02;2.47;;;1.77;;
62574;SDS011;53112;45.602;11.904;2022-09-13T10:08:36;2.85;;;1.48;;
62574;SDS011;53112;45.602;11.904;2022-09-13T10:11:05;1.23;;;1.13;;
62574;SDS011;53112;45.602;11.904;2022-09-13T10:13:31;1.63;;;1.25;;
62574;SDS011;53112;45.602;11.904;2022-09-13T10:16:02;1.55;;;1.23;;
62574;SDS011;53112;45.602;11.904;2022-09-13T10:18:47;1.83;;;1.63;;
62574;SDS011;53112;45.602;11.904;2022-09-13T10:23:43;3.75;;;1.50;;
62574;SDS011;53112;45.602;11.904;2022-09-13T10:31:17;3.40;;;1.55;;
62574;SDS011;53112;45.602;11.904;2022-09-13T10:34:06;2.63;;;1.60;;
62574;SDS011;53112;45.602;11.904;2022-09-13T10:36:36;3.08;;;1.85;;
62574;SDS011;53112;45.602;11.904;2022-09-13T10:39:11;1.92;;;1.55;;
62574;SDS011;53112;45.602;11.904;2022-09-13T10:41:47;2.55;;;1.63;;
62574;SDS011;53112;45.602;11.904;2022-09-13T10:44:23;2.45;;;1.70;;
62574;SDS011;53112;45.602;11.904;2022-09-13T10:46:53;2.75;;;1.30;;
62574;SDS011;53112;45.602;11.904;2022-09-13T10:52:27;1.58;;;1.45;;
62574;SDS011;53112;45.602;11.904;2022-09-13T10:55:14;1.83;;;1.40;;
62574;SDS011;53112;45.602;11.904;2022-09-13T11:00:18;2.90;;;1.30;;
62574;SDS011;53112;45.602;11.904;2022-09-13T11:11:32;1.80;;;1.17;;
62574;SDS011;53112;45.602;11.904;2022-09-13T11:22:30;2.58;;;1.30;;
62574;SDS011;53112;45.602;11.904;2022-09-13T11:25:25;1.30;;;1.20;;
62574;SDS011;53112;45.602;11.904;2022-09-13T11:30:34;1.40;;;1.23;;
62574;SDS011;53112;45.602;11.904;2022-09-13T11:34:05;3.53;;;1.63;;
62574;SDS011;53112;45.602;11.904;2022-09-13T11:40:02;1.90;;;1.45;;
62574;SDS011;53112;45.602;11.904;2022-09-13T11:50:22;1.92;;;1.60;;
62574;SDS011;53112;45.602;11.904;2022-09-13T11:55:48;1.90;;;1.15;;
62574;SDS011;53112;45.602;11.904;2022-09-13T11:58:23;3.88;;;1.30;;
62574;SDS011;53112;45.602;11.904;2022-09-13T12:00:59;2.80;;;1.50;;
62574;SDS011;53112;45.602;11.904;2022-09-13T12:06:17;1.70;;;1.33;;
62574;SDS011;53112;45.602;11.904;2022-09-13T12:08:47;4.00;;;1.50;;
62574;SDS011;53112;45.602;11.904;2022-09-13T12:11:34;1.73;;;1.17;;
62574;SDS011;53112;45.602;11.904;2022-09-13T12:14:05;3.65;;;1.60;;
62574;SDS011;53112;45.602;11.904;2022-09-13T12:16:37;1.70;;;1.42;;
62574;SDS011;53112;45.602;11.904;2022-09-13T12:19:11;1.50;;;1.40;;
62574;SDS011;53112;45.602;11.904;2022-09-13T12:21:50;2.72;;;1.55;;
62574;SDS011;53112;45.602;11.904;2022-09-13T12:32:56;3.33;;;1.70;;
62574;SDS011;53112;45.602;11.904;2022-09-13T12:35:25;2.53;;;1.60;;
62574;SDS011;53112;45.602;11.904;2022-09-13T12:46:18;5.70;;;1.75;;
62574;SDS011;53112;45.602;11.904;2022-09-13T12:49:03;4.18;;;2.13;;
62574;SDS011;53112;45.602;11.904;2022-09-13T12:51:36;4.50;;;1.80;;
62574;SDS011;53112;45.602;11.904;2022-09-13T12:57:16;2.00;;;1.80;;
62574;SDS011;53112;45.602;11.904;2022-09-13T13:08:00;3.72;;;1.88;;
62574;SDS011;53112;45.602;11.904;2022-09-13T13:10:29;2.65;;;1.70;;
62574;SDS011;53112;45.602;11.904;2022-09-13T13:13:10;2.97;;;1.45;;
62574;SDS011;53112;45.602;11.904;2022-09-13T13:18:22;2.25;;;1.50;;
62574;SDS011;53112;45.602;11.904;2022-09-13T13:25:58;1.30;;;1.20;;
62574;SDS011;53112;45.602;11.904;2022-09-13T13:36:41;2.88;;;1.48;;
62574;SDS011;53112;45.602;11.904;2022-09-13T13:41:57;1.40;;;1.30;;
62574;SDS011;53112;45.602;11.904;2022-09-13T13:49:50;2.08;;;1.40;;
62574;SDS011;53112;45.602;11.904;2022-09-13T13:57:22;2.90;;;1.40;;
62574;SDS011;53112;45.602;11.904;2022-09-13T14:00:16;1.73;;;1.40;;
62574;SDS011;53112;45.602;11.904;2022-09-13T14:05:24;3.05;;;1.45;;
62574;SDS011;53112;45.602;11.904;2022-09-13T14:10:53;3.63;;;1.40;;
62574;SDS011;53112;45.602;11.904;2022-09-13T14:13:41;3.20;;;1.65;;
62574;SDS011;53112;45.602;11.904;2022-09-13T14:21:33;3.17;;;1.70;;
62574;SDS011;53112;45.602;11.904;2022-09-13T14:26:45;3.92;;;1.75;;
62574;SDS011;53112;45.602;11.904;2022-09-13T14:29:17;2.72;;;1.48;;
62574;SDS011;53112;45.602;11.904;2022-09-13T14:31:48;2.10;;;1.40;;
62574;SDS011;53112;45.602;11.904;2022-09-13T14:34:30;1.70;;;1.35;;
62574;SDS011;53112;45.602;11.904;2022-09-13T14:36:58;2.45;;;1.40;;
62574;SDS011;53112;45.602;11.904;2022-09-13T14:39:27;3.67;;;1.40;;
62574;SDS011;53112;45.602;11.904;2022-09-13T14:42:36;2.80;;;1.30;;
62574;SDS011;53112;45.602;11.904;2022-09-13T14:44:46;4.13;;;1.40;;
62574;SDS011;53112;45.602;11.904;2022-09-13T14:49:45;2.40;;;1.08;;
62574;SDS011;53112;45.602;11.904;2022-09-13T14:54:56;1.67;;;1.23;;
62574;SDS011;53112;45.602;11.904;2022-09-13T14:57:31;2.38;;;1.20;;
62574;SDS011;53112;45.602;11.904;2022-09-13T15:00:04;3.00;;;1.40;;
62574;SDS011;53112;45.602;11.904;2022-09-13T15:02:39;3.28;;;1.17;;
62574;SDS011;53112;45.602;11.904;2022-09-13T15:05:20;2.78;;;1.50;;
62574;SDS011;53112;45.602;11.904;2022-09-13T15:07:48;2.40;;;1.30;;
62574;SDS011;53112;45.602;11.904;2022-09-13T15:10:19;2.25;;;1.20;;
62574;SDS011;53112;45.602;11.904;2022-09-13T15:20:46;1.40;;;1.30;;
62574;SDS011;53112;45.602;11.904;2022-09-13T15:23:15;4.78;;;1.50;;
62574;SDS011;53112;45.602;11.904;2022-09-13T15:25:52;2.90;;;1.48;;
62574;SDS011;53112;45.602;11.904;2022-09-13T15:28:51;3.20;;;1.45;;
62574;SDS011;53112;45.602;11.904;2022-09-13T15:31:32;1.30;;;1.20;;
62574;SDS011;53112;45.602;11.904;2022-09-13T15:34:12;1.65;;;1.20;;
62574;SDS011;53112;45.602;11.904;2022-09-13T15:37:10;2.45;;;1.30;;
62574;SDS011;53112;45.602;11.904;2022-09-13T15:39:49;2.50;;;1.35;;
62574;SDS011;53112;45.602;11.904;2022-09-13T15:42:32;3.33;;;1.40;;
62574;SDS011;53112;45.602;11.904;2022-09-13T15:44:58;1.70;;;1.13;;
62574;SDS011;53112;45.602;11.904;2022-09-13T15:47:24;2.65;;;1.10;;
62574;SDS011;53112;45.602;11.904;2022-09-13T15:49:50;2.38;;;1.27;;
62574;SDS011;53112;45.602;11.904;2022-09-13T15:52:19;3.22;;;1.20;;
62574;SDS011;53112;45.602;11.904;2022-09-13T15:57:24;1.80;;;1.30;;
62574;SDS011;53112;45.602;11.904;2022-09-13T15:59:52;2.85;;;1.30;;
62574;SDS011;53112;45.602;11.904;2022-09-13T16:02:40;1.30;;;1.20;;
62574;SDS011;53112;45.602;11.904;2022-09-13T16:05:06;1.10;;;0.93;;
62574;SDS011;53112;45.602;11.904;2022-09-13T16:07:33;2.72;;;1.30;;
62574;SDS011;53112;45.602;11.904;2022-09-13T16:09:59;1.77;;;1.17;;
62574;SDS011;53112;45.602;11.904;2022-09-13T16:12:25;2.35;;;1.00;;
62574;SDS011;53112;45.602;11.904;2022-09-13T16:14:51;3.92;;;1.27;;
62574;SDS011;53112;45.602;11.904;2022-09-13T16:17:22;1.95;;;1.10;;
62574;SDS011;53112;45.602;11.904;2022-09-13T16:19:51;2.65;;;1.25;;
62574;SDS011;53112;45.602;11.904;2022-09-13T16:22:18;1.98;;;1.08;;
62574;SDS011;53112;45.602;11.904;2022-09-13T16:24:44;2.63;;;1.40;;
62574;SDS011;53112;45.602;11.904;2022-09-13T16:27:12;1.48;;;1.20;;
62574;SDS011;53112;45.602;11.904;2022-09-13T16:29:39;1.35;;;1.20;;
62574;SDS011;53112;45.602;11.904;2022-09-13T16:32:06;1.20;;;1.10;;
62574;SDS011;53112;45.602;11.904;2022-09-13T16:34:32;1.55;;;1.35;;
62574;SDS011;53112;45.602;11.904;2022-09-13T16:36:58;3.55;;;1.10;;
62574;SDS011;53112;45.602;11.904;2022-09-13T16:39:25;1.50;;;1.10;;
62574;SDS011;53112;45.602;11.904;2022-09-13T16:41:51;3.47;;;1.17;;
62574;SDS011;53112;45.602;11.904;2022-09-13T16:44:17;1.27;;;1.10;;
62574;SDS011;53112;45.602;11.904;2022-09-13T16:46:43;1.45;;;1.10;;
62574;SDS011;53112;45.602;11.904;2022-09-13T16:49:09;2.70;;;1.23;;
62574;SDS011;53112;45.602;11.904;2022-09-13T16:51:35;4.30;;;1.20;;
62574;SDS011;53112;45.602;11.904;2022-09-13T16:54:02;1.20;;;1.10;;
62574;SDS011;53112;45.602;11.904;2022-09-13T16:56:29;2.25;;;1.30;;
62574;SDS011;53112;45.602;11.904;2022-09-13T16:58:56;3.25;;;1.30;;
62574;SDS011;53112;45.602;11.904;2022-09-13T17:01:23;1.88;;;1.30;;
62574;SDS011;53112;45.602;11.904;2022-09-13T17:03:52;3.38;;;1.23;;
62574;SDS011;53112;45.602;11.904;2022-09-13T17:06:22;1.30;;;1.20;;
62574;SDS011;53112;45.602;11.904;2022-09-13T17:08:51;1.52;;;1.10;;
62574;SDS011;53112;45.602;11.904;2022-09-13T17:11:30;1.65;;;1.20;;
62574;SDS011;53112;45.602;11.904;2022-09-13T17:13:59;2.08;;;1.25;;
62574;SDS011;53112;45.602;11.904;2022-09-13T17:16:33;1.10;;;1.10;;
62574;SDS011;53112;45.602;11.904;2022-09-13T17:19:02;2.47;;;1.30;;
62574;SDS011;53112;45.602;11.904;2022-09-13T17:21:33;2.38;;;1.30;;
62574;SDS011;53112;45.602;11.904;2022-09-13T17:23:59;2.10;;;1.30;;
62574;SDS011;53112;45.602;11.904;2022-09-13T17:26:26;3.33;;;1.70;;
62574;SDS011;53112;45.602;11.904;2022-09-13T17:28:51;5.00;;;1.65;;
62574;SDS011;53112;45.602;11.904;2022-09-13T17:31:18;3.15;;;1.63;;
62574;SDS011;53112;45.602;11.904;2022-09-13T17:33:44;3.20;;;1.70;;
62574;SDS011;53112;45.602;11.904;2022-09-13T17:36:11;2.03;;;1.50;;
62574;SDS011;53112;45.602;11.904;2022-09-13T17:38:38;2.97;;;1.60;;
62574;SDS011;53112;45.602;11.904;2022-09-13T17:41:06;1.77;;;1.48;;
62574;SDS011;53112;45.602;11.904;2022-09-13T17:43:35;2.97;;;1.70;;
62574;SDS011;53112;45.602;11.904;2022-09-13T17:46:11;2.65;;;1.48;;
62574;SDS011;53112;45.602;11.904;2022-09-13T17:48:39;3.05;;;1.50;;
62574;SDS011;53112;45.602;11.904;2022-09-13T17:51:07;2.63;;;1.60;;
62574;SDS011;53112;45.602;11.904;2022-09-13T17:53:38;3.72;;;1.73;;
62574;SDS011;53112;45.602;11.904;2022-09-13T17:56:07;11.43;;;2.10;;
62574;SDS011;53112;45.602;11.904;2022-09-13T17:58:33;2.70;;;1.90;;
62574;SDS011;53112;45.602;11.904;2022-09-13T18:01:04;4.03;;;1.90;;
62574;SDS011;53112;45.602;11.904;2022-09-13T18:03:32;3.97;;;1.90;;
62574;SDS011;53112;45.602;11.904;2022-09-13T18:05:59;2.60;;;1.80;;
62574;SDS011;53112;45.602;11.904;2022-09-13T18:08:26;3.58;;;1.67;;
62574;SDS011;53112;45.602;11.904;2022-09-13T18:11:00;3.30;;;2.05;;
62574;SDS011;53112;45.602;11.904;2022-09-13T18:13:28;4.07;;;1.80;;
62574;SDS011;53112;45.602;11.904;2022-09-13T18:16:01;1.90;;;1.80;;
62574;SDS011;53112;45.602;11.904;2022-09-13T18:18:49;2.40;;;1.80;;
62574;SDS011;53112;45.602;11.904;2022-09-13T18:21:17;1.75;;;1.60;;
62574;SDS011;53112;45.602;11.904;2022-09-13T18:23:48;4.78;;;1.83;;
62574;SDS011;53112;45.602;11.904;2022-09-13T18:26:17;2.50;;;1.70;;
62574;SDS011;53112;45.602;11.904;2022-09-13T18:28:45;2.17;;;1.60;;
62574;SDS011;53112;45.602;11.904;2022-09-13T18:31:14;2.33;;;1.73;;
62574;SDS011;53112;45.602;11.904;2022-09-13T18:33:43;2.30;;;1.60;;
62574;SDS011;53112;45.602;11.904;2022-09-13T18:36:10;2.47;;;1.85;;
62574;SDS011;53112;45.602;11.904;2022-09-13T18:38:43;2.90;;;1.60;;
62574;SDS011;53112;45.602;11.904;2022-09-13T18:41:13;3.28;;;1.88;;
62574;SDS011;53112;45.602;11.904;2022-09-13T18:43:40;3.83;;;1.80;;
62574;SDS011;53112;45.602;11.904;2022-09-13T18:46:11;1.70;;;1.60;;